Omidiyeh, Iran
Current Conditions -  °F | °C
As of 11:00 PM on Monday 24 Nov 2014 (Local Time) from OIAG Reporting Station
Rain Showers Rain Showers  
Wind Chill: 66°   Ceiling: 4000
Heat Index: 66°   Visibility: 6mi
Dew Point: 61°   Wind: 7mph
Humidity: 83%   Direction: 330°NNW
Pressure: 29.91"   Gusts: NA
Location:  30.75°N, 49.71°E
Report Text: OIAG 242000Z 33006KT 9999 -SHRA FEW035CB BKN040 19/16 Q1013
Loading
Personal Weather Stations






























Interactive Weather Map New forecast layout! Learn more

10-Day Weather Forecast

Advertisements
Track Severe Weather on mobile